sensor_id;sensor_type;location;lat;lon;timestamp;temperature;humidity
32097;DHT22;18610;49.916;8.284;2023-03-20T00:00:20;10.20;99.90
32097;DHT22;18610;49.916;8.284;2023-03-20T00:02:50;10.20;99.90
32097;DHT22;18610;49.916;8.284;2023-03-20T00:05:18;10.20;99.90
32097;DHT22;18610;49.916;8.284;2023-03-20T00:07:47;10.10;99.90
32097;DHT22;18610;49.916;8.284;2023-03-20T00:10:14;10.10;99.90
32097;DHT22;18610;49.916;8.284;2023-03-20T00:12:42;10.10;99.90
32097;DHT22;18610;49.916;8.284;2023-03-20T00:15:21;10.20;99.90
32097;DHT22;18610;49.916;8.284;2023-03-20T00:17:50;10.20;99.90
32097;DHT22;18610;49.916;8.284;2023-03-20T00:20:17;10.10;99.90
32097;DHT22;18610;49.916;8.284;2023-03-20T00:22:44;10.10;99.90
32097;DHT22;18610;49.916;8.284;2023-03-20T00:25:13;10.10;99.90
32097;DHT22;18610;49.916;8.284;2023-03-20T00:27:40;10.00;99.90
32097;DHT22;18610;49.916;8.284;2023-03-20T00:30:17;10.00;99.90
32097;DHT22;18610;49.916;8.284;2023-03-20T00:32:45;10.00;99.90
32097;DHT22;18610;49.916;8.284;2023-03-20T00:35:23;10.00;99.90
32097;DHT22;18610;49.916;8.284;2023-03-20T00:37:50;10.00;99.90
32097;DHT22;18610;49.916;8.284;2023-03-20T00:40:17;10.00;99.90
32097;DHT22;18610;49.916;8.284;2023-03-20T00:42:47;10.10;99.90
32097;DHT22;18610;49.916;8.284;2023-03-20T00:45:17;10.10;99.90
32097;DHT22;18610;49.916;8.284;2023-03-20T00:47:47;10.00;99.90
32097;DHT22;18610;49.916;8.284;2023-03-20T00:50:16;10.00;99.90
32097;DHT22;18610;49.916;8.284;2023-03-20T00:52:44;10.00;99.90
32097;DHT22;18610;49.916;8.284;2023-03-20T00:55:11;10.00;99.90
32097;DHT22;18610;49.916;8.284;2023-03-20T00:57:41;10.10;99.90
32097;DHT22;18610;49.916;8.284;2023-03-20T01:00:19;10.10;99.90
32097;DHT22;18610;49.916;8.284;2023-03-20T01:02:46;10.10;99.90
32097;DHT22;18610;49.916;8.284;2023-03-20T01:05:13;10.10;99.90
32097;DHT22;18610;49.916;8.284;2023-03-20T01:07:41;10.10;99.90
32097;DHT22;18610;49.916;8.284;2023-03-20T01:10:11;10.10;99.90
32097;DHT22;18610;49.916;8.284;2023-03-20T01:12:38;10.10;99.90
32097;DHT22;18610;49.916;8.284;2023-03-20T01:15:15;10.10;99.90
32097;DHT22;18610;49.916;8.284;2023-03-20T01:17:42;10.20;99.90
32097;DHT22;18610;49.916;8.284;2023-03-20T01:20:14;10.20;99.90
32097;DHT22;18610;49.916;8.284;2023-03-20T01:22:41;10.20;99.90
32097;DHT22;18610;49.916;8.284;2023-03-20T01:25:10;10.20;99.90
32097;DHT22;18610;49.916;8.284;2023-03-20T01:27:37;10.20;99.90
32097;DHT22;18610;49.916;8.284;2023-03-20T01:30:15;10.30;99.90
32097;DHT22;18610;49.916;8.284;2023-03-20T01:32:42;10.30;99.90
32097;DHT22;18610;49.916;8.284;2023-03-20T01:35:12;10.30;99.90
32097;DHT22;18610;49.916;8.284;2023-03-20T01:37:39;10.30;99.90
32097;DHT22;18610;49.916;8.284;2023-03-20T01:40:15;10.30;99.90
32097;DHT22;18610;49.916;8.284;2023-03-20T01:42:45;10.30;99.90
32097;DHT22;18610;49.916;8.284;2023-03-20T01:45:15;10.20;99.90
32097;DHT22;18610;49.916;8.284;2023-03-20T01:47:43;10.20;99.90
32097;DHT22;18610;49.916;8.284;2023-03-20T01:50:26;10.20;99.90
32097;DHT22;18610;49.916;8.284;2023-03-20T01:53:00;10.20;99.90
32097;DHT22;18610;49.916;8.284;2023-03-20T01:55:29;10.20;99.90
32097;DHT22;18610;49.916;8.284;2023-03-20T01:58:01;10.20;99.90
32097;DHT22;18610;49.916;8.284;2023-03-20T02:00:29;10.10;99.90
32097;DHT22;18610;49.916;8.284;2023-03-20T02:02:57;10.10;99.90
32097;DHT22;18610;49.916;8.284;2023-03-20T02:05:24;10.00;99.90
32097;DHT22;18610;49.916;8.284;2023-03-20T02:08:01;10.00;99.90
32097;DHT22;18610;49.916;8.284;2023-03-20T02:10:31;10.00;99.90
32097;DHT22;18610;49.916;8.284;2023-03-20T02:12:59;10.00;99.90
32097;DHT22;18610;49.916;8.284;2023-03-20T02:15:29;10.00;99.90
32097;DHT22;18610;49.916;8.284;2023-03-20T02:17:55;10.00;99.90
32097;DHT22;18610;49.916;8.284;2023-03-20T02:20:32;10.00;99.90
32097;DHT22;18610;49.916;8.284;2023-03-20T02:23:38;10.00;99.90
32097;DHT22;18610;49.916;8.284;2023-03-20T02:26:37;10.00;99.90
32097;DHT22;18610;49.916;8.284;2023-03-20T02:29:26;10.00;99.90
32097;DHT22;18610;49.916;8.284;2023-03-20T02:35:48;9.90;99.90
32097;DHT22;18610;49.916;8.284;2023-03-20T02:38:23;9.90;99.90
32097;DHT22;18610;49.916;8.284;2023-03-20T02:40:58;9.90;99.90
32097;DHT22;18610;49.916;8.284;2023-03-20T02:43:34;9.90;99.90
32097;DHT22;18610;49.916;8.284;2023-03-20T02:46:12;9.80;99.90
32097;DHT22;18610;49.916;8.284;2023-03-20T02:48:46;9.90;99.90
32097;DHT22;18610;49.916;8.284;2023-03-20T02:51:18;9.80;99.90
32097;DHT22;18610;49.916;8.284;2023-03-20T02:53:53;9.80;99.90
32097;DHT22;18610;49.916;8.284;2023-03-20T02:56:30;9.80;99.90
32097;DHT22;18610;49.916;8.284;2023-03-20T02:59:02;9.80;99.90
32097;DHT22;18610;49.916;8.284;2023-03-20T03:01:36;9.80;99.90
32097;DHT22;18610;49.916;8.284;2023-03-20T03:04:06;9.90;99.90
32097;DHT22;18610;49.916;8.284;2023-03-20T03:06:36;9.80;99.90
32097;DHT22;18610;49.916;8.284;2023-03-20T03:09:08;9.90;99.90
32097;DHT22;18610;49.916;8.284;2023-03-20T03:11:42;9.90;99.90
32097;DHT22;18610;49.916;8.284;2023-03-20T03:14:14;9.80;99.90
32097;DHT22;18610;49.916;8.284;2023-03-20T03:16:43;9.80;99.90
32097;DHT22;18610;49.916;8.284;2023-03-20T03:19:12;9.80;99.90
32097;DHT22;18610;49.916;8.284;2023-03-20T03:21:40;9.80;99.90
32097;DHT22;18610;49.916;8.284;2023-03-20T03:24:22;9.90;99.90
32097;DHT22;18610;49.916;8.284;2023-03-20T03:26:52;9.90;99.90
32097;DHT22;18610;49.916;8.284;2023-03-20T03:29:20;9.90;99.90
32097;DHT22;18610;49.916;8.284;2023-03-20T03:31:49;9.90;99.90
32097;DHT22;18610;49.916;8.284;2023-03-20T03:34:17;9.80;99.90
32097;DHT22;18610;49.916;8.284;2023-03-20T03:36:50;9.80;99.90
32097;DHT22;18610;49.916;8.284;2023-03-20T03:39:24;9.80;99.90
32097;DHT22;18610;49.916;8.284;2023-03-20T03:42:02;9.80;99.90
32097;DHT22;18610;49.916;8.284;2023-03-20T03:44:36;9.80;99.90
32097;DHT22;18610;49.916;8.284;2023-03-20T03:47:09;9.80;99.90
32097;DHT22;18610;49.916;8.284;2023-03-20T03:49:40;9.80;99.90
32097;DHT22;18610;49.916;8.284;2023-03-20T03:52:10;9.90;99.90
32097;DHT22;18610;49.916;8.284;2023-03-20T03:54:42;9.90;99.90
32097;DHT22;18610;49.916;8.284;2023-03-20T03:57:11;9.90;99.90
32097;DHT22;18610;49.916;8.284;2023-03-20T03:59:40;9.90;99.90
32097;DHT22;18610;49.916;8.284;2023-03-20T04:02:09;9.90;99.90
32097;DHT22;18610;49.916;8.284;2023-03-20T04:04:41;9.90;99.90
32097;DHT22;18610;49.916;8.284;2023-03-20T04:07:08;9.90;99.90
32097;DHT22;18610;49.916;8.284;2023-03-20T04:09:35;9.90;99.90
32097;DHT22;18610;49.916;8.284;2023-03-20T04:12:04;10.00;99.90
32097;DHT22;18610;49.916;8.284;2023-03-20T04:14:31;10.00;99.90
32097;DHT22;18610;49.916;8.284;2023-03-20T04:16:58;10.00;99.90
32097;DHT22;18610;49.916;8.284;2023-03-20T04:19:25;10.00;99.90
32097;DHT22;18610;49.916;8.284;2023-03-20T04:21:52;10.00;99.90
32097;DHT22;18610;49.916;8.284;2023-03-20T04:24:19;10.00;99.90
32097;DHT22;18610;49.916;8.284;2023-03-20T04:26:46;10.00;99.90
32097;DHT22;18610;49.916;8.284;2023-03-20T04:29:14;10.00;99.90
32097;DHT22;18610;49.916;8.284;2023-03-20T04:31:41;10.00;99.90
32097;DHT22;18610;49.916;8.284;2023-03-20T04:34:07;10.00;99.90
32097;DHT22;18610;49.916;8.284;2023-03-20T04:36:34;10.00;99.90
32097;DHT22;18610;49.916;8.284;2023-03-20T04:39:01;10.00;99.90
32097;DHT22;18610;49.916;8.284;2023-03-20T04:41:27;10.00;99.90
32097;DHT22;18610;49.916;8.284;2023-03-20T04:43:54;10.10;99.90
32097;DHT22;18610;49.916;8.284;2023-03-20T04:46:22;10.10;99.90
32097;DHT22;18610;49.916;8.284;2023-03-20T04:48:49;10.20;99.90
32097;DHT22;18610;49.916;8.284;2023-03-20T04:51:16;10.20;99.90
32097;DHT22;18610;49.916;8.284;2023-03-20T04:53:42;10.30;99.90
32097;DHT22;18610;49.916;8.284;2023-03-20T04:56:09;10.30;99.90
32097;DHT22;18610;49.916;8.284;2023-03-20T04:58:36;10.30;99.90
32097;DHT22;18610;49.916;8.284;2023-03-20T05:01:03;10.30;99.90
32097;DHT22;18610;49.916;8.284;2023-03-20T05:03:31;10.30;99.90
32097;DHT22;18610;49.916;8.284;2023-03-20T05:05:58;10.30;99.90
32097;DHT22;18610;49.916;8.284;2023-03-20T05:08:25;10.30;99.90
32097;DHT22;18610;49.916;8.284;2023-03-20T05:10:52;10.20;99.90
32097;DHT22;18610;49.916;8.284;2023-03-20T05:13:18;10.20;99.90
32097;DHT22;18610;49.916;8.284;2023-03-20T05:15:45;10.20;99.90
32097;DHT22;18610;49.916;8.284;2023-03-20T05:18:13;10.20;99.90
32097;DHT22;18610;49.916;8.284;2023-03-20T05:20:41;10.20;99.90
32097;DHT22;18610;49.916;8.284;2023-03-20T05:23:08;10.10;99.90
32097;DHT22;18610;49.916;8.284;2023-03-20T05:25:35;10.20;99.90
32097;DHT22;18610;49.916;8.284;2023-03-20T05:28:02;10.10;99.90
32097;DHT22;18610;49.916;8.284;2023-03-20T05:30:28;10.10;99.90
32097;DHT22;18610;49.916;8.284;2023-03-20T05:32:56;10.10;99.90
32097;DHT22;18610;49.916;8.284;2023-03-20T05:35:22;10.10;99.90
32097;DHT22;18610;49.916;8.284;2023-03-20T05:37:50;10.10;99.90
32097;DHT22;18610;49.916;8.284;2023-03-20T05:40:17;10.10;99.90
32097;DHT22;18610;49.916;8.284;2023-03-20T05:42:48;10.10;99.90
32097;DHT22;18610;49.916;8.284;2023-03-20T05:45:15;10.10;99.90
32097;DHT22;18610;49.916;8.284;2023-03-20T05:47:42;10.10;99.90
32097;DHT22;18610;49.916;8.284;2023-03-20T05:50:10;10.10;99.90
32097;DHT22;18610;49.916;8.284;2023-03-20T05:52:37;10.10;99.90
32097;DHT22;18610;49.916;8.284;2023-03-20T05:55:06;10.00;99.90
32097;DHT22;18610;49.916;8.284;2023-03-20T05:57:32;10.00;99.90
32097;DHT22;18610;49.916;8.284;2023-03-20T05:59:59;10.10;99.90
32097;DHT22;18610;49.916;8.284;2023-03-20T06:02:26;10.10;99.90
32097;DHT22;18610;49.916;8.284;2023-03-20T06:04:52;10.10;99.90
32097;DHT22;18610;49.916;8.284;2023-03-20T06:07:19;10.20;99.90
32097;DHT22;18610;49.916;8.284;2023-03-20T06:09:46;10.20;99.90
32097;DHT22;18610;49.916;8.284;2023-03-20T06:12:14;10.20;99.90
32097;DHT22;18610;49.916;8.284;2023-03-20T06:14:41;10.20;99.90
32097;DHT22;18610;49.916;8.284;2023-03-20T06:17:08;10.20;99.90
32097;DHT22;18610;49.916;8.284;2023-03-20T06:19:35;10.20;99.90
32097;DHT22;18610;49.916;8.284;2023-03-20T06:22:03;10.20;99.90
32097;DHT22;18610;49.916;8.284;2023-03-20T06:24:30;10.20;99.90
32097;DHT22;18610;49.916;8.284;2023-03-20T06:26:56;10.20;99.90
32097;DHT22;18610;49.916;8.284;2023-03-20T06:29:25;10.20;99.90
32097;DHT22;18610;49.916;8.284;2023-03-20T06:31:53;10.30;99.90
32097;DHT22;18610;49.916;8.284;2023-03-20T06:34:19;10.30;99.90
32097;DHT22;18610;49.916;8.284;2023-03-20T06:36:46;10.30;99.90
32097;DHT22;18610;49.916;8.284;2023-03-20T06:39:13;10.30;99.90
32097;DHT22;18610;49.916;8.284;2023-03-20T06:41:40;10.30;99.90
32097;DHT22;18610;49.916;8.284;2023-03-20T06:44:07;10.30;99.90
32097;DHT22;18610;49.916;8.284;2023-03-20T06:46:35;10.30;99.90
32097;DHT22;18610;49.916;8.284;2023-03-20T06:49:02;10.30;99.90
32097;DHT22;18610;49.916;8.284;2023-03-20T06:51:28;10.30;99.90
32097;DHT22;18610;49.916;8.284;2023-03-20T06:53:56;10.30;99.90
32097;DHT22;18610;49.916;8.284;2023-03-20T06:56:22;10.30;99.90
32097;DHT22;18610;49.916;8.284;2023-03-20T06:58:49;10.30;99.90
32097;DHT22;18610;49.916;8.284;2023-03-20T07:01:16;10.40;99.90
32097;DHT22;18610;49.916;8.284;2023-03-20T07:03:46;10.40;99.90
32097;DHT22;18610;49.916;8.284;2023-03-20T07:06:13;10.40;99.90
32097;DHT22;18610;49.916;8.284;2023-03-20T07:08:39;10.40;99.90
32097;DHT22;18610;49.916;8.284;2023-03-20T07:11:06;10.40;99.90
32097;DHT22;18610;49.916;8.284;2023-03-20T07:13:33;10.40;99.90
32097;DHT22;18610;49.916;8.284;2023-03-20T07:16:01;10.30;99.90
32097;DHT22;18610;49.916;8.284;2023-03-20T07:18:28;10.30;99.90
32097;DHT22;18610;49.916;8.284;2023-03-20T07:21:00;10.30;99.90
32097;DHT22;18610;49.916;8.284;2023-03-20T07:23:27;10.30;99.90
32097;DHT22;18610;49.916;8.284;2023-03-20T07:25:54;10.20;99.90
32097;DHT22;18610;49.916;8.284;2023-03-20T07:28:20;10.20;99.90
32097;DHT22;18610;49.916;8.284;2023-03-20T07:30:47;10.20;99.90
32097;DHT22;18610;49.916;8.284;2023-03-20T07:33:14;10.20;99.90
32097;DHT22;18610;49.916;8.284;2023-03-20T07:35:41;10.20;99.90
32097;DHT22;18610;49.916;8.284;2023-03-20T07:38:10;10.30;99.90
32097;DHT22;18610;49.916;8.284;2023-03-20T07:40:37;10.30;99.90
32097;DHT22;18610;49.916;8.284;2023-03-20T07:43:03;10.40;99.90
32097;DHT22;18610;49.916;8.284;2023-03-20T07:45:30;10.40;99.90
32097;DHT22;18610;49.916;8.284;2023-03-20T07:47:57;10.40;99.90
32097;DHT22;18610;49.916;8.284;2023-03-20T07:50:24;10.40;99.90
32097;DHT22;18610;49.916;8.284;2023-03-20T07:52:51;10.40;99.90
32097;DHT22;18610;49.916;8.284;2023-03-20T07:55:19;10.60;99.90
32097;DHT22;18610;49.916;8.284;2023-03-20T07:57:47;10.70;99.90
32097;DHT22;18610;49.916;8.284;2023-03-20T08:00:16;10.80;99.90
32097;DHT22;18610;49.916;8.284;2023-03-20T08:02:43;10.80;99.90
32097;DHT22;18610;49.916;8.284;2023-03-20T08:05:10;10.80;99.90
32097;DHT22;18610;49.916;8.284;2023-03-20T08:07:36;10.90;99.90
32097;DHT22;18610;49.916;8.284;2023-03-20T08:10:04;10.90;99.90
32097;DHT22;18610;49.916;8.284;2023-03-20T08:12:32;11.00;99.90
32097;DHT22;18610;49.916;8.284;2023-03-20T08:14:59;11.00;99.90
32097;DHT22;18610;49.916;8.284;2023-03-20T08:17:27;11.10;99.90
32097;DHT22;18610;49.916;8.284;2023-03-20T08:19:53;11.10;99.90
32097;DHT22;18610;49.916;8.284;2023-03-20T08:22:20;11.10;99.90
32097;DHT22;18610;49.916;8.284;2023-03-20T08:24:47;11.10;99.90
32097;DHT22;18610;49.916;8.284;2023-03-20T08:27:14;11.10;99.90
32097;DHT22;18610;49.916;8.284;2023-03-20T08:29:43;11.10;99.90
32097;DHT22;18610;49.916;8.284;2023-03-20T08:32:09;11.00;99.90
32097;DHT22;18610;49.916;8.284;2023-03-20T08:34:36;10.90;99.90
32097;DHT22;18610;49.916;8.284;2023-03-20T08:37:03;10.80;99.90
32097;DHT22;18610;49.916;8.284;2023-03-20T08:39:30;10.80;99.90
32097;DHT22;18610;49.916;8.284;2023-03-20T08:41:57;10.80;99.90
32097;DHT22;18610;49.916;8.284;2023-03-20T08:44:24;10.90;99.90
32097;DHT22;18610;49.916;8.284;2023-03-20T08:46:54;10.90;99.90
32097;DHT22;18610;49.916;8.284;2023-03-20T08:49:21;10.90;99.90
32097;DHT22;18610;49.916;8.284;2023-03-20T08:51:48;11.00;99.90
32097;DHT22;18610;49.916;8.284;2023-03-20T08:54:15;11.00;99.90
32097;DHT22;18610;49.916;8.284;2023-03-20T08:56:43;11.20;99.90
32097;DHT22;18610;49.916;8.284;2023-03-20T08:59:10;11.20;99.90
32097;DHT22;18610;49.916;8.284;2023-03-20T09:01:36;11.40;99.90
32097;DHT22;18610;49.916;8.284;2023-03-20T09:04:04;11.40;99.90
32097;DHT22;18610;49.916;8.284;2023-03-20T09:06:35;11.40;99.90
32097;DHT22;18610;49.916;8.284;2023-03-20T09:09:02;11.50;99.90
32097;DHT22;18610;49.916;8.284;2023-03-20T09:11:29;11.60;99.90
32097;DHT22;18610;49.916;8.284;2023-03-20T09:13:57;11.60;99.90
32097;DHT22;18610;49.916;8.284;2023-03-20T09:16:24;11.70;99.90
32097;DHT22;18610;49.916;8.284;2023-03-20T09:18:51;11.70;99.90
32097;DHT22;18610;49.916;8.284;2023-03-20T09:21:20;11.70;99.90
32097;DHT22;18610;49.916;8.284;2023-03-20T09:23:46;11.90;99.90
32097;DHT22;18610;49.916;8.284;2023-03-20T09:26:13;12.10;99.90
32097;DHT22;18610;49.916;8.284;2023-03-20T09:28:40;12.30;99.90
32097;DHT22;18610;49.916;8.284;2023-03-20T09:31:07;12.80;99.90
32097;DHT22;18610;49.916;8.284;2023-03-20T09:33:33;13.20;99.90
32097;DHT22;18610;49.916;8.284;2023-03-20T09:36:00;13.60;99.90
32097;DHT22;18610;49.916;8.284;2023-03-20T09:38:28;13.60;99.90
32097;DHT22;18610;49.916;8.284;2023-03-20T09:40:57;13.60;99.90
32097;DHT22;18610;49.916;8.284;2023-03-20T09:43:32;13.40;99.90
32097;DHT22;18610;49.916;8.284;2023-03-20T09:46:08;13.50;99.90
32097;DHT22;18610;49.916;8.284;2023-03-20T09:48:42;13.40;99.90
32097;DHT22;18610;49.916;8.284;2023-03-20T09:51:18;13.40;99.90
32097;DHT22;18610;49.916;8.284;2023-03-20T09:53:51;13.20;99.90
32097;DHT22;18610;49.916;8.284;2023-03-20T09:56:22;13.10;99.90
32097;DHT22;18610;49.916;8.284;2023-03-20T09:58:53;13.00;99.90
32097;DHT22;18610;49.916;8.284;2023-03-20T10:01:23;12.90;99.90
32097;DHT22;18610;49.916;8.284;2023-03-20T10:03:54;12.70;99.90
32097;DHT22;18610;49.916;8.284;2023-03-20T10:06:24;12.70;99.90
32097;DHT22;18610;49.916;8.284;2023-03-20T10:08:53;12.80;99.90
32097;DHT22;18610;49.916;8.284;2023-03-20T10:11:49;12.90;99.90
32097;DHT22;18610;49.916;8.284;2023-03-20T10:14:24;13.10;99.90
32097;DHT22;18610;49.916;8.284;2023-03-20T10:16:59;13.40;99.90
32097;DHT22;18610;49.916;8.284;2023-03-20T10:19:29;13.50;99.90
32097;DHT22;18610;49.916;8.284;2023-03-20T10:22:00;13.80;99.90
32097;DHT22;18610;49.916;8.284;2023-03-20T10:24:32;13.90;99.90
32097;DHT22;18610;49.916;8.284;2023-03-20T10:27:05;14.00;99.90
32097;DHT22;18610;49.916;8.284;2023-03-20T10:29:42;14.00;99.90
32097;DHT22;18610;49.916;8.284;2023-03-20T10:32:15;14.20;99.90
32097;DHT22;18610;49.916;8.284;2023-03-20T10:34:52;14.10;99.90
32097;DHT22;18610;49.916;8.284;2023-03-20T10:37:31;14.10;99.90
32097;DHT22;18610;49.916;8.284;2023-03-20T10:40:14;13.90;99.90
32097;DHT22;18610;49.916;8.284;2023-03-20T10:42:45;13.80;99.90
32097;DHT22;18610;49.916;8.284;2023-03-20T10:45:26;13.60;99.90
32097;DHT22;18610;49.916;8.284;2023-03-20T10:47:56;13.60;99.90
32097;DHT22;18610;49.916;8.284;2023-03-20T10:50:28;13.60;99.90
32097;DHT22;18610;49.916;8.284;2023-03-20T10:52:59;13.70;99.90
32097;DHT22;18610;49.916;8.284;2023-03-20T10:55:31;13.70;99.90
32097;DHT22;18610;49.916;8.284;2023-03-20T10:58:03;13.70;99.90
32097;DHT22;18610;49.916;8.284;2023-03-20T11:00:32;13.60;99.90
32097;DHT22;18610;49.916;8.284;2023-03-20T11:02:58;13.70;99.90
32097;DHT22;18610;49.916;8.284;2023-03-20T11:05:29;13.80;99.90
32097;DHT22;18610;49.916;8.284;2023-03-20T11:08:02;13.80;99.90
32097;DHT22;18610;49.916;8.284;2023-03-20T11:10:33;13.80;99.90
32097;DHT22;18610;49.916;8.284;2023-03-20T11:13:13;13.90;99.90
32097;DHT22;18610;49.916;8.284;2023-03-20T11:15:41;14.00;99.90
32097;DHT22;18610;49.916;8.284;2023-03-20T11:18:10;14.00;99.90
32097;DHT22;18610;49.916;8.284;2023-03-20T11:20:44;14.10;99.90
32097;DHT22;18610;49.916;8.284;2023-03-20T11:23:15;14.10;99.90
32097;DHT22;18610;49.916;8.284;2023-03-20T11:25:49;14.20;99.90
32097;DHT22;18610;49.916;8.284;2023-03-20T11:28:26;14.20;99.90
32097;DHT22;18610;49.916;8.284;2023-03-20T11:31:01;14.10;99.90
32097;DHT22;18610;49.916;8.284;2023-03-20T11:33:29;14.10;99.90
32097;DHT22;18610;49.916;8.284;2023-03-20T11:35:58;14.10;99.90
32097;DHT22;18610;49.916;8.284;2023-03-20T11:38:25;14.10;99.90
32097;DHT22;18610;49.916;8.284;2023-03-20T11:40:56;14.20;99.90
32097;DHT22;18610;49.916;8.284;2023-03-20T11:43:25;14.30;99.90
32097;DHT22;18610;49.916;8.284;2023-03-20T11:45:55;14.70;99.90
32097;DHT22;18610;49.916;8.284;2023-03-20T11:48:24;14.90;99.90
32097;DHT22;18610;49.916;8.284;2023-03-20T11:51:01;15.20;99.90
32097;DHT22;18610;49.916;8.284;2023-03-20T11:53:31;15.70;99.90
32097;DHT22;18610;49.916;8.284;2023-03-20T11:56:06;16.10;99.80
32097;DHT22;18610;49.916;8.284;2023-03-20T11:58:36;16.30;97.90
32097;DHT22;18610;49.916;8.284;2023-03-20T12:01:07;16.60;98.60
32097;DHT22;18610;49.916;8.284;2023-03-20T12:03:43;17.00;97.50
32097;DHT22;18610;49.916;8.284;2023-03-20T12:06:16;17.30;96.00
32097;DHT22;18610;49.916;8.284;2023-03-20T12:08:49;17.40;96.10
32097;DHT22;18610;49.916;8.284;2023-03-20T12:11:35;17.60;95.10
32097;DHT22;18610;49.916;8.284;2023-03-20T12:14:07;17.70;93.00
32097;DHT22;18610;49.916;8.284;2023-03-20T12:16:40;17.40;92.70
32097;DHT22;18610;49.916;8.284;2023-03-20T12:19:11;17.10;93.00
32097;DHT22;18610;49.916;8.284;2023-03-20T12:21:42;17.10;93.70
32097;DHT22;18610;49.916;8.284;2023-03-20T12:24:14;17.20;93.90
32097;DHT22;18610;49.916;8.284;2023-03-20T12:26:51;17.00;91.60
32097;DHT22;18610;49.916;8.284;2023-03-20T12:29:24;16.90;90.20
32097;DHT22;18610;49.916;8.284;2023-03-20T12:31:55;16.70;89.60
32097;DHT22;18610;49.916;8.284;2023-03-20T12:34:25;16.50;89.30
32097;DHT22;18610;49.916;8.284;2023-03-20T12:36:54;16.40;89.20
32097;DHT22;18610;49.916;8.284;2023-03-20T12:39:23;16.30;89.60
32097;DHT22;18610;49.916;8.284;2023-03-20T12:42:03;16.30;90.70
32097;DHT22;18610;49.916;8.284;2023-03-20T12:44:38;16.30;90.50
32097;DHT22;18610;49.916;8.284;2023-03-20T12:47:17;16.10;90.00
32097;DHT22;18610;49.916;8.284;2023-03-20T12:49:54;15.80;90.60
32097;DHT22;18610;49.916;8.284;2023-03-20T12:52:30;15.60;90.50
32097;DHT22;18610;49.916;8.284;2023-03-20T12:55:11;15.60;91.70
32097;DHT22;18610;49.916;8.284;2023-03-20T12:57:49;15.60;91.90
32097;DHT22;18610;49.916;8.284;2023-03-20T13:00:23;15.60;91.10
32097;DHT22;18610;49.916;8.284;2023-03-20T13:03:02;15.50;91.30
32097;DHT22;18610;49.916;8.284;2023-03-20T13:05:42;15.30;90.80
32097;DHT22;18610;49.916;8.284;2023-03-20T13:08:33;15.20;91.00
32097;DHT22;18610;49.916;8.284;2023-03-20T13:11:08;15.20;91.40
32097;DHT22;18610;49.916;8.284;2023-03-20T13:13:42;15.20;91.70
32097;DHT22;18610;49.916;8.284;2023-03-20T13:16:18;15.30;92.10
32097;DHT22;18610;49.916;8.284;2023-03-20T13:18:54;15.30;90.90
32097;DHT22;18610;49.916;8.284;2023-03-20T13:21:30;15.20;91.90
32097;DHT22;18610;49.916;8.284;2023-03-20T13:24:07;15.20;91.40
32097;DHT22;18610;49.916;8.284;2023-03-20T13:26:37;15.20;91.80
32097;DHT22;18610;49.916;8.284;2023-03-20T13:29:15;15.20;92.40
32097;DHT22;18610;49.916;8.284;2023-03-20T13:31:52;15.10;90.30
32097;DHT22;18610;49.916;8.284;2023-03-20T13:34:30;15.00;91.20
32097;DHT22;18610;49.916;8.284;2023-03-20T13:37:06;14.90;91.90
32097;DHT22;18610;49.916;8.284;2023-03-20T13:39:39;14.90;91.10
32097;DHT22;18610;49.916;8.284;2023-03-20T13:42:11;14.80;91.60
32097;DHT22;18610;49.916;8.284;2023-03-20T13:44:41;15.00;91.50
32097;DHT22;18610;49.916;8.284;2023-03-20T13:47:11;15.00;91.40
32097;DHT22;18610;49.916;8.284;2023-03-20T13:49:42;15.00;91.40
32097;DHT22;18610;49.916;8.284;2023-03-20T13:52:14;15.00;91.20
32097;DHT22;18610;49.916;8.284;2023-03-20T13:54:59;15.00;91.50
32097;DHT22;18610;49.916;8.284;2023-03-20T13:57:44;15.00;91.10
32097;DHT22;18610;49.916;8.284;2023-03-20T14:00:24;14.90;91.50
32097;DHT22;18610;49.916;8.284;2023-03-20T14:03:07;14.80;91.20
32097;DHT22;18610;49.916;8.284;2023-03-20T14:05:38;14.60;92.00
32097;DHT22;18610;49.916;8.284;2023-03-20T14:08:23;14.60;92.70
32097;DHT22;18610;49.916;8.284;2023-03-20T14:11:05;14.40;92.50
32097;DHT22;18610;49.916;8.284;2023-03-20T14:13:33;14.50;92.30
32097;DHT22;18610;49.916;8.284;2023-03-20T14:16:07;14.40;92.00
32097;DHT22;18610;49.916;8.284;2023-03-20T14:18:34;14.30;92.20
32097;DHT22;18610;49.916;8.284;2023-03-20T14:21:09;14.20;91.70
32097;DHT22;18610;49.916;8.284;2023-03-20T14:23:38;14.20;92.40
32097;DHT22;18610;49.916;8.284;2023-03-20T14:26:11;14.30;93.30
32097;DHT22;18610;49.916;8.284;2023-03-20T14:28:51;14.20;92.30
32097;DHT22;18610;49.916;8.284;2023-03-20T14:31:25;14.20;91.30
32097;DHT22;18610;49.916;8.284;2023-03-20T14:33:58;14.10;92.10
32097;DHT22;18610;49.916;8.284;2023-03-20T14:36:30;14.10;91.90
32097;DHT22;18610;49.916;8.284;2023-03-20T14:39:17;14.10;91.40
32097;DHT22;18610;49.916;8.284;2023-03-20T14:41:57;14.10;91.50
32097;DHT22;18610;49.916;8.284;2023-03-20T14:44:35;14.00;91.20
32097;DHT22;18610;49.916;8.284;2023-03-20T14:47:11;14.00;90.60
32097;DHT22;18610;49.916;8.284;2023-03-20T14:49:49;13.90;90.30
32097;DHT22;18610;49.916;8.284;2023-03-20T14:52:39;13.90;90.60
32097;DHT22;18610;49.916;8.284;2023-03-20T14:55:29;13.80;91.00
32097;DHT22;18610;49.916;8.284;2023-03-20T14:58:00;13.80;91.80
32097;DHT22;18610;49.916;8.284;2023-03-20T15:00:28;13.70;90.00
32097;DHT22;18610;49.916;8.284;2023-03-20T15:03:05;13.60;90.10
32097;DHT22;18610;49.916;8.284;2023-03-20T15:05:36;13.50;90.50
32097;DHT22;18610;49.916;8.284;2023-03-20T15:08:05;13.30;90.60
32097;DHT22;18610;49.916;8.284;2023-03-20T15:10:34;13.20;92.10
32097;DHT22;18610;49.916;8.284;2023-03-20T15:13:04;13.20;91.90
32097;DHT22;18610;49.916;8.284;2023-03-20T15:15:32;13.20;91.50
32097;DHT22;18610;49.916;8.284;2023-03-20T15:18:09;13.00;91.10
32097;DHT22;18610;49.916;8.284;2023-03-20T15:20:37;12.90;92.20
32097;DHT22;18610;49.916;8.284;2023-03-20T15:23:04;12.90;92.00
32097;DHT22;18610;49.916;8.284;2023-03-20T15:25:36;12.90;91.60
32097;DHT22;18610;49.916;8.284;2023-03-20T15:28:04;12.90;92.40
32097;DHT22;18610;49.916;8.284;2023-03-20T15:30:36;12.80;92.40
32097;DHT22;18610;49.916;8.284;2023-03-20T15:33:05;12.80;92.60
32097;DHT22;18610;49.916;8.284;2023-03-20T15:35:33;12.80;92.10
32097;DHT22;18610;49.916;8.284;2023-03-20T15:38:04;12.80;92.10
32097;DHT22;18610;49.916;8.284;2023-03-20T15:40:37;12.70;91.90
32097;DHT22;18610;49.916;8.284;2023-03-20T15:43:10;12.70;92.20
32097;DHT22;18610;49.916;8.284;2023-03-20T15:45:39;12.70;92.80
32097;DHT22;18610;49.916;8.284;2023-03-20T15:48:11;12.70;92.50
32097;DHT22;18610;49.916;8.284;2023-03-20T15:50:40;12.80;92.60
32097;DHT22;18610;49.916;8.284;2023-03-20T15:53:15;12.80;92.30
32097;DHT22;18610;49.916;8.284;2023-03-20T15:55:47;12.80;91.60
32097;DHT22;18610;49.916;8.284;2023-03-20T15:58:15;12.80;91.80